sensor_id;sensor_type;location;lat;lon;timestamp;P1;durP1;ratioP1;P2;durP2;ratioP2
27999;SDS011;15328;50.860;10.562;2023-05-07T00:02:04;29.75;;;20.38;;
27999;SDS011;15328;50.860;10.562;2023-05-07T00:07:04;29.70;;;20.23;;
27999;SDS011;15328;50.860;10.562;2023-05-07T00:12:05;32.80;;;21.58;;
27999;SDS011;15328;50.860;10.562;2023-05-07T00:17:06;27.65;;;19.10;;
27999;SDS011;15328;50.860;10.562;2023-05-07T00:22:06;33.92;;;22.27;;
27999;SDS011;15328;50.860;10.562;2023-05-07T00:27:08;31.77;;;20.55;;
27999;SDS011;15328;50.860;10.562;2023-05-07T00:32:09;35.40;;;24.42;;
27999;SDS011;15328;50.860;10.562;2023-05-07T00:37:10;37.92;;;25.17;;
27999;SDS011;15328;50.860;10.562;2023-05-07T00:42:11;35.05;;;23.38;;
27999;SDS011;15328;50.860;10.562;2023-05-07T00:47:12;34.88;;;23.55;;
27999;SDS011;15328;50.860;10.562;2023-05-07T00:52:14;39.42;;;25.20;;
27999;SDS011;15328;50.860;10.562;2023-05-07T00:57:17;38.78;;;24.35;;
27999;SDS011;15328;50.860;10.562;2023-05-07T01:02:17;40.97;;;25.33;;
27999;SDS011;15328;50.860;10.562;2023-05-07T01:07:18;36.83;;;23.25;;
27999;SDS011;15328;50.860;10.562;2023-05-07T01:12:19;45.25;;;27.88;;
27999;SDS011;15328;50.860;10.562;2023-05-07T01:17:20;46.60;;;29.80;;
27999;SDS011;15328;50.860;10.562;2023-05-07T01:22:28;42.88;;;27.25;;
27999;SDS011;15328;50.860;10.562;2023-05-07T01:27:32;42.53;;;25.60;;
27999;SDS011;15328;50.860;10.562;2023-05-07T01:32:36;42.75;;;26.85;;
27999;SDS011;15328;50.860;10.562;2023-05-07T01:37:40;46.67;;;29.58;;
27999;SDS011;15328;50.860;10.562;2023-05-07T01:42:41;42.00;;;24.90;;
27999;SDS011;15328;50.860;10.562;2023-05-07T01:47:43;36.00;;;23.27;;
27999;SDS011;15328;50.860;10.562;2023-05-07T01:52:44;42.17;;;26.98;;
27999;SDS011;15328;50.860;10.562;2023-05-07T01:57:44;41.00;;;25.10;;
27999;SDS011;15328;50.860;10.562;2023-05-07T02:02:45;39.67;;;24.10;;
27999;SDS011;15328;50.860;10.562;2023-05-07T02:07:46;39.45;;;25.25;;
27999;SDS011;15328;50.860;10.562;2023-05-07T02:12:46;45.20;;;26.90;;
27999;SDS011;15328;50.860;10.562;2023-05-07T02:18:05;41.17;;;26.07;;
27999;SDS011;15328;50.860;10.562;2023-05-07T02:23:07;46.13;;;27.05;;
27999;SDS011;15328;50.860;10.562;2023-05-07T02:28:08;41.65;;;25.63;;
27999;SDS011;15328;50.860;10.562;2023-05-07T02:33:08;38.37;;;24.43;;
27999;SDS011;15328;50.860;10.562;2023-05-07T02:38:09;39.05;;;23.67;;
27999;SDS011;15328;50.860;10.562;2023-05-07T02:43:10;40.33;;;24.70;;
27999;SDS011;15328;50.860;10.562;2023-05-07T02:48:11;45.67;;;27.73;;
27999;SDS011;15328;50.860;10.562;2023-05-07T02:53:11;46.95;;;28.08;;
27999;SDS011;15328;50.860;10.562;2023-05-07T02:58:11;44.80;;;27.47;;
27999;SDS011;15328;50.860;10.562;2023-05-07T03:03:12;48.03;;;28.20;;
27999;SDS011;15328;50.860;10.562;2023-05-07T03:08:12;42.78;;;23.67;;
27999;SDS011;15328;50.860;10.562;2023-05-07T03:13:13;43.00;;;24.60;;
27999;SDS011;15328;50.860;10.562;2023-05-07T03:18:13;46.35;;;25.85;;
27999;SDS011;15328;50.860;10.562;2023-05-07T03:23:13;52.13;;;29.47;;
27999;SDS011;15328;50.860;10.562;2023-05-07T03:28:14;47.20;;;27.08;;
27999;SDS011;15328;50.860;10.562;2023-05-07T03:33:14;49.70;;;27.63;;
27999;SDS011;15328;50.860;10.562;2023-05-07T03:38:15;48.58;;;25.92;;
27999;SDS011;15328;50.860;10.562;2023-05-07T03:43:15;51.33;;;27.10;;
27999;SDS011;15328;50.860;10.562;2023-05-07T03:48:16;49.72;;;27.15;;
27999;SDS011;15328;50.860;10.562;2023-05-07T03:53:16;50.80;;;27.70;;
27999;SDS011;15328;50.860;10.562;2023-05-07T03:58:16;51.00;;;26.53;;
27999;SDS011;15328;50.860;10.562;2023-05-07T04:03:17;43.13;;;24.07;;
27999;SDS011;15328;50.860;10.562;2023-05-07T04:08:18;48.25;;;25.42;;
27999;SDS011;15328;50.860;10.562;2023-05-07T04:13:19;50.47;;;27.50;;
27999;SDS011;15328;50.860;10.562;2023-05-07T04:18:19;49.37;;;24.93;;
27999;SDS011;15328;50.860;10.562;2023-05-07T04:23:20;51.22;;;27.65;;
27999;SDS011;15328;50.860;10.562;2023-05-07T04:28:20;54.70;;;29.27;;
27999;SDS011;15328;50.860;10.562;2023-05-07T04:33:21;54.17;;;28.10;;
27999;SDS011;15328;50.860;10.562;2023-05-07T04:38:21;56.55;;;27.98;;
27999;SDS011;15328;50.860;10.562;2023-05-07T04:43:23;47.65;;;25.60;;
27999;SDS011;15328;50.860;10.562;2023-05-07T04:48:24;52.00;;;28.15;;
27999;SDS011;15328;50.860;10.562;2023-05-07T04:53:24;60.47;;;32.08;;
27999;SDS011;15328;50.860;10.562;2023-05-07T04:58:25;53.08;;;27.98;;
27999;SDS011;15328;50.860;10.562;2023-05-07T05:03:25;48.75;;;25.70;;
27999;SDS011;15328;50.860;10.562;2023-05-07T05:08:26;43.13;;;23.85;;
27999;SDS011;15328;50.860;10.562;2023-05-07T05:13:26;44.00;;;23.60;;
27999;SDS011;15328;50.860;10.562;2023-05-07T05:18:27;47.20;;;25.37;;
27999;SDS011;15328;50.860;10.562;2023-05-07T05:23:27;47.13;;;25.30;;
27999;SDS011;15328;50.860;10.562;2023-05-07T05:28:27;42.97;;;23.80;;
27999;SDS011;15328;50.860;10.562;2023-05-07T05:33:28;51.67;;;27.00;;
27999;SDS011;15328;50.860;10.562;2023-05-07T05:38:28;46.70;;;25.27;;
27999;SDS011;15328;50.860;10.562;2023-05-07T05:43:28;49.37;;;27.30;;
27999;SDS011;15328;50.860;10.562;2023-05-07T05:48:29;50.05;;;25.85;;
27999;SDS011;15328;50.860;10.562;2023-05-07T05:53:29;46.05;;;25.38;;
27999;SDS011;15328;50.860;10.562;2023-05-07T05:58:30;54.93;;;29.33;;
27999;SDS011;15328;50.860;10.562;2023-05-07T06:03:30;49.92;;;25.42;;
27999;SDS011;15328;50.860;10.562;2023-05-07T06:08:32;44.35;;;25.02;;
27999;SDS011;15328;50.860;10.562;2023-05-07T06:13:32;53.37;;;26.43;;
27999;SDS011;15328;50.860;10.562;2023-05-07T06:18:33;44.95;;;23.83;;
27999;SDS011;15328;50.860;10.562;2023-05-07T06:23:33;44.88;;;24.15;;
27999;SDS011;15328;50.860;10.562;2023-05-07T06:28:33;44.63;;;24.30;;
27999;SDS011;15328;50.860;10.562;2023-05-07T06:33:36;39.70;;;22.50;;
27999;SDS011;15328;50.860;10.562;2023-05-07T06:38:37;46.70;;;24.33;;
27999;SDS011;15328;50.860;10.562;2023-05-07T06:43:37;40.20;;;21.50;;
27999;SDS011;15328;50.860;10.562;2023-05-07T06:48:37;39.07;;;22.47;;
27999;SDS011;15328;50.860;10.562;2023-05-07T06:53:38;40.10;;;22.67;;
27999;SDS011;15328;50.860;10.562;2023-05-07T06:58:38;35.10;;;19.27;;
27999;SDS011;15328;50.860;10.562;2023-05-07T07:03:39;31.93;;;18.20;;
27999;SDS011;15328;50.860;10.562;2023-05-07T07:08:39;28.70;;;17.38;;
27999;SDS011;15328;50.860;10.562;2023-05-07T07:13:40;33.90;;;18.37;;
27999;SDS011;15328;50.860;10.562;2023-05-07T07:18:40;30.50;;;18.02;;
27999;SDS011;15328;50.860;10.562;2023-05-07T07:23:40;27.70;;;16.60;;
27999;SDS011;15328;50.860;10.562;2023-05-07T07:28:44;29.20;;;16.08;;
27999;SDS011;15328;50.860;10.562;2023-05-07T07:33:46;28.00;;;16.77;;
27999;SDS011;15328;50.860;10.562;2023-05-07T07:38:46;31.83;;;18.33;;
27999;SDS011;15328;50.860;10.562;2023-05-07T07:43:46;23.83;;;14.37;;
27999;SDS011;15328;50.860;10.562;2023-05-07T07:48:47;28.63;;;16.23;;
27999;SDS011;15328;50.860;10.562;2023-05-07T07:53:47;28.92;;;16.67;;
27999;SDS011;15328;50.860;10.562;2023-05-07T07:58:48;35.97;;;22.57;;
27999;SDS011;15328;50.860;10.562;2023-05-07T08:03:48;29.30;;;18.40;;
27999;SDS011;15328;50.860;10.562;2023-05-07T08:08:48;31.30;;;17.70;;
27999;SDS011;15328;50.860;10.562;2023-05-07T08:13:49;26.83;;;15.87;;
27999;SDS011;15328;50.860;10.562;2023-05-07T08:18:50;27.58;;;16.33;;
27999;SDS011;15328;50.860;10.562;2023-05-07T08:23:53;28.70;;;17.50;;
27999;SDS011;15328;50.860;10.562;2023-05-07T08:28:53;28.53;;;16.40;;
27999;SDS011;15328;50.860;10.562;2023-05-07T08:33:54;29.83;;;16.67;;
27999;SDS011;15328;50.860;10.562;2023-05-07T08:38:54;26.87;;;16.73;;
27999;SDS011;15328;50.860;10.562;2023-05-07T08:43:54;26.15;;;15.65;;
27999;SDS011;15328;50.860;10.562;2023-05-07T08:49:00;30.92;;;17.10;;
27999;SDS011;15328;50.860;10.562;2023-05-07T08:54:01;28.85;;;16.80;;
27999;SDS011;15328;50.860;10.562;2023-05-07T08:59:02;28.33;;;16.95;;
27999;SDS011;15328;50.860;10.562;2023-05-07T09:04:03;32.42;;;17.50;;
27999;SDS011;15328;50.860;10.562;2023-05-07T09:09:05;27.58;;;15.70;;
27999;SDS011;15328;50.860;10.562;2023-05-07T09:14:06;24.35;;;15.07;;
27999;SDS011;15328;50.860;10.562;2023-05-07T09:19:06;26.60;;;16.13;;
27999;SDS011;15328;50.860;10.562;2023-05-07T09:24:06;28.43;;;16.90;;
27999;SDS011;15328;50.860;10.562;2023-05-07T09:29:07;28.00;;;16.50;;
27999;SDS011;15328;50.860;10.562;2023-05-07T09:34:10;28.05;;;17.20;;
27999;SDS011;15328;50.860;10.562;2023-05-07T09:39:10;27.98;;;16.63;;
27999;SDS011;15328;50.860;10.562;2023-05-07T09:44:10;29.67;;;18.17;;
27999;SDS011;15328;50.860;10.562;2023-05-07T09:49:11;26.73;;;15.90;;
27999;SDS011;15328;50.860;10.562;2023-05-07T09:54:20;25.45;;;16.50;;
27999;SDS011;15328;50.860;10.562;2023-05-07T09:59:21;28.25;;;15.52;;
27999;SDS011;15328;50.860;10.562;2023-05-07T10:04:22;27.40;;;16.85;;
27999;SDS011;15328;50.860;10.562;2023-05-07T10:09:23;23.05;;;14.77;;
27999;SDS011;15328;50.860;10.562;2023-05-07T10:14:25;25.25;;;15.82;;
27999;SDS011;15328;50.860;10.562;2023-05-07T10:19:27;25.92;;;16.48;;
27999;SDS011;15328;50.860;10.562;2023-05-07T10:24:33;23.77;;;15.73;;
27999;SDS011;15328;50.860;10.562;2023-05-07T10:34:53;24.70;;;15.98;;
27999;SDS011;15328;50.860;10.562;2023-05-07T10:39:55;28.33;;;17.63;;
27999;SDS011;15328;50.860;10.562;2023-05-07T10:44:55;23.27;;;15.77;;
27999;SDS011;15328;50.860;10.562;2023-05-07T11:05:23;20.42;;;13.23;;
27999;SDS011;15328;50.860;10.562;2023-05-07T11:10:23;21.98;;;14.02;;
27999;SDS011;15328;50.860;10.562;2023-05-07T11:15:53;22.90;;;14.48;;
27999;SDS011;15328;50.860;10.562;2023-05-07T11:20:57;23.63;;;15.15;;
27999;SDS011;15328;50.860;10.562;2023-05-07T11:25:59;20.52;;;13.82;;
27999;SDS011;15328;50.860;10.562;2023-05-07T11:31:03;24.70;;;14.82;;
27999;SDS011;15328;50.860;10.562;2023-05-07T11:36:04;22.27;;;14.40;;
27999;SDS011;15328;50.860;10.562;2023-05-07T11:41:05;20.60;;;14.05;;
27999;SDS011;15328;50.860;10.562;2023-05-07T11:46:10;22.85;;;15.25;;
27999;SDS011;15328;50.860;10.562;2023-05-07T11:51:12;22.90;;;15.88;;
27999;SDS011;15328;50.860;10.562;2023-05-07T11:56:14;24.00;;;15.30;;
27999;SDS011;15328;50.860;10.562;2023-05-07T12:01:16;20.90;;;13.68;;
27999;SDS011;15328;50.860;10.562;2023-05-07T12:06:17;19.77;;;12.52;;
27999;SDS011;15328;50.860;10.562;2023-05-07T12:11:24;20.10;;;13.27;;
27999;SDS011;15328;50.860;10.562;2023-05-07T12:16:25;18.87;;;12.37;;
27999;SDS011;15328;50.860;10.562;2023-05-07T12:21:27;19.10;;;14.45;;
27999;SDS011;15328;50.860;10.562;2023-05-07T12:26:27;21.05;;;13.80;;
27999;SDS011;15328;50.860;10.562;2023-05-07T12:31:28;19.65;;;13.60;;
27999;SDS011;15328;50.860;10.562;2023-05-07T12:36:36;20.27;;;14.23;;
27999;SDS011;15328;50.860;10.562;2023-05-07T12:42:14;17.83;;;13.40;;
27999;SDS011;15328;50.860;10.562;2023-05-07T12:47:29;22.67;;;14.55;;
27999;SDS011;15328;50.860;10.562;2023-05-07T12:52:41;19.33;;;13.70;;
27999;SDS011;15328;50.860;10.562;2023-05-07T12:58:00;20.02;;;14.38;;
27999;SDS011;15328;50.860;10.562;2023-05-07T13:03:02;18.25;;;12.80;;
27999;SDS011;15328;50.860;10.562;2023-05-07T13:08:03;20.80;;;13.13;;
27999;SDS011;15328;50.860;10.562;2023-05-07T13:13:04;19.17;;;14.40;;
27999;SDS011;15328;50.860;10.562;2023-05-07T13:18:04;20.63;;;14.20;;
27999;SDS011;15328;50.860;10.562;2023-05-07T13:23:26;16.83;;;12.47;;
27999;SDS011;15328;50.860;10.562;2023-05-07T13:28:38;18.27;;;13.48;;
27999;SDS011;15328;50.860;10.562;2023-05-07T13:33:41;17.73;;;13.15;;
27999;SDS011;15328;50.860;10.562;2023-05-07T13:44:35;17.35;;;12.93;;
27999;SDS011;15328;50.860;10.562;2023-05-07T13:49:38;15.45;;;12.15;;
27999;SDS011;15328;50.860;10.562;2023-05-07T13:54:42;16.45;;;12.05;;
27999;SDS011;15328;50.860;10.562;2023-05-07T13:59:45;17.05;;;12.73;;
27999;SDS011;15328;50.860;10.562;2023-05-07T14:04:46;17.05;;;12.85;;
27999;SDS011;15328;50.860;10.562;2023-05-07T14:09:49;16.98;;;12.98;;
27999;SDS011;15328;50.860;10.562;2023-05-07T14:14:50;18.77;;;13.25;;
27999;SDS011;15328;50.860;10.562;2023-05-07T14:19:51;19.15;;;12.63;;
27999;SDS011;15328;50.860;10.562;2023-05-07T14:24:53;16.08;;;12.10;;
27999;SDS011;15328;50.860;10.562;2023-05-07T14:29:54;16.35;;;12.27;;
27999;SDS011;15328;50.860;10.562;2023-05-07T14:34:54;15.35;;;11.68;;
27999;SDS011;15328;50.860;10.562;2023-05-07T14:39:54;15.60;;;11.23;;
27999;SDS011;15328;50.860;10.562;2023-05-07T14:44:55;14.83;;;10.07;;
27999;SDS011;15328;50.860;10.562;2023-05-07T14:49:55;14.43;;;10.73;;
27999;SDS011;15328;50.860;10.562;2023-05-07T14:54:57;14.43;;;11.43;;
27999;SDS011;15328;50.860;10.562;2023-05-07T14:59:57;15.33;;;12.20;;
27999;SDS011;15328;50.860;10.562;2023-05-07T15:04:58;14.43;;;10.82;;
27999;SDS011;15328;50.860;10.562;2023-05-07T15:09:59;12.82;;;10.45;;
27999;SDS011;15328;50.860;10.562;2023-05-07T15:14:59;12.88;;;9.95;;
27999;SDS011;15328;50.860;10.562;2023-05-07T15:20:00;12.05;;;9.65;;
27999;SDS011;15328;50.860;10.562;2023-05-07T15:25:00;12.60;;;9.57;;
27999;SDS011;15328;50.860;10.562;2023-05-07T15:30:01;10.85;;;8.52;;
27999;SDS011;15328;50.860;10.562;2023-05-07T15:35:01;10.63;;;8.65;;
27999;SDS011;15328;50.860;10.562;2023-05-07T15:40:03;9.95;;;8.40;;
27999;SDS011;15328;50.860;10.562;2023-05-07T15:45:06;49.72;;;30.88;;
27999;SDS011;15328;50.860;10.562;2023-05-07T15:50:07;50.92;;;31.13;;
27999;SDS011;15328;50.860;10.562;2023-05-07T15:55:08;26.13;;;19.17;;
27999;SDS011;15328;50.860;10.562;2023-05-07T16:00:09;20.67;;;15.05;;
27999;SDS011;15328;50.860;10.562;2023-05-07T16:05:11;17.45;;;13.85;;
27999;SDS011;15328;50.860;10.562;2023-05-07T16:10:12;11.63;;;8.93;;
27999;SDS011;15328;50.860;10.562;2023-05-07T16:15:12;11.80;;;9.18;;
27999;SDS011;15328;50.860;10.562;2023-05-07T16:20:13;10.82;;;8.65;;
27999;SDS011;15328;50.860;10.562;2023-05-07T16:25:15;10.98;;;8.60;;
27999;SDS011;15328;50.860;10.562;2023-05-07T16:30:15;9.82;;;7.65;;
27999;SDS011;15328;50.860;10.562;2023-05-07T16:35:16;9.60;;;8.00;;
27999;SDS011;15328;50.860;10.562;2023-05-07T16:40:16;10.27;;;8.65;;
27999;SDS011;15328;50.860;10.562;2023-05-07T16:45:17;8.87;;;7.87;;
27999;SDS011;15328;50.860;10.562;2023-05-07T16:50:18;9.05;;;7.40;;
27999;SDS011;15328;50.860;10.562;2023-05-07T16:55:18;8.38;;;7.40;;
27999;SDS011;15328;50.860;10.562;2023-05-07T17:00:19;8.20;;;6.72;;
27999;SDS011;15328;50.860;10.562;2023-05-07T17:05:19;9.37;;;8.23;;
27999;SDS011;15328;50.860;10.562;2023-05-07T17:10:20;9.40;;;7.60;;
27999;SDS011;15328;50.860;10.562;2023-05-07T17:15:20;9.90;;;8.30;;
27999;SDS011;15328;50.860;10.562;2023-05-07T17:20:21;7.50;;;6.70;;
27999;SDS011;15328;50.860;10.562;2023-05-07T17:25:21;8.73;;;7.43;;
27999;SDS011;15328;50.860;10.562;2023-05-07T17:30:22;9.15;;;7.22;;
27999;SDS011;15328;50.860;10.562;2023-05-07T17:35:22;8.55;;;7.65;;
27999;SDS011;15328;50.860;10.562;2023-05-07T17:40:23;11.05;;;9.38;;
27999;SDS011;15328;50.860;10.562;2023-05-07T17:45:23;10.80;;;8.73;;
27999;SDS011;15328;50.860;10.562;2023-05-07T17:50:23;11.13;;;9.63;;
27999;SDS011;15328;50.860;10.562;2023-05-07T17:55:24;15.37;;;10.27;;
27999;SDS011;15328;50.860;10.562;2023-05-07T18:00:24;10.20;;;8.50;;
27999;SDS011;15328;50.860;10.562;2023-05-07T18:05:25;11.52;;;10.02;;
27999;SDS011;15328;50.860;10.562;2023-05-07T18:10:26;11.75;;;9.27;;
27999;SDS011;15328;50.860;10.562;2023-05-07T18:15:27;11.32;;;9.30;;
27999;SDS011;15328;50.860;10.562;2023-05-07T18:20:27;11.43;;;8.98;;
27999;SDS011;15328;50.860;10.562;2023-05-07T18:25:27;11.13;;;8.23;;
27999;SDS011;15328;50.860;10.562;2023-05-07T18:30:28;10.20;;;8.57;;
27999;SDS011;15328;50.860;10.562;2023-05-07T18:35:28;9.13;;;7.77;;
27999;SDS011;15328;50.860;10.562;2023-05-07T18:40:30;12.85;;;8.45;;
27999;SDS011;15328;50.860;10.562;2023-05-07T18:45:31;12.03;;;9.00;;
27999;SDS011;15328;50.860;10.562;2023-05-07T18:50:32;10.90;;;8.75;;
27999;SDS011;15328;50.860;10.562;2023-05-07T18:55:33;10.60;;;8.52;;
27999;SDS011;15328;50.860;10.562;2023-05-07T19:00:33;11.43;;;8.43;;
27999;SDS011;15328;50.860;10.562;2023-05-07T19:05:33;11.03;;;8.60;;
27999;SDS011;15328;50.860;10.562;2023-05-07T19:10:34;10.75;;;8.25;;
27999;SDS011;15328;50.860;10.562;2023-05-07T19:15:34;11.10;;;8.80;;
27999;SDS011;15328;50.860;10.562;2023-05-07T19:20:35;11.48;;;8.88;;
27999;SDS011;15328;50.860;10.562;2023-05-07T19:25:35;10.93;;;8.97;;
27999;SDS011;15328;50.860;10.562;2023-05-07T19:30:37;11.88;;;9.00;;
27999;SDS011;15328;50.860;10.562;2023-05-07T19:35:38;11.00;;;8.15;;
27999;SDS011;15328;50.860;10.562;2023-05-07T19:40:39;10.50;;;7.90;;
27999;SDS011;15328;50.860;10.562;2023-05-07T19:45:39;9.07;;;7.63;;
27999;SDS011;15328;50.860;10.562;2023-05-07T19:50:42;7.70;;;6.82;;
27999;SDS011;15328;50.860;10.562;2023-05-07T19:55:42;9.13;;;6.77;;
27999;SDS011;15328;50.860;10.562;2023-05-07T20:00:43;9.85;;;8.10;;
27999;SDS011;15328;50.860;10.562;2023-05-07T20:05:44;9.37;;;7.20;;
27999;SDS011;15328;50.860;10.562;2023-05-07T20:10:46;10.95;;;7.78;;
27999;SDS011;15328;50.860;10.562;2023-05-07T20:15:47;11.15;;;8.55;;
27999;SDS011;15328;50.860;10.562;2023-05-07T20:20:47;10.27;;;7.93;;
27999;SDS011;15328;50.860;10.562;2023-05-07T20:25:48;8.48;;;7.47;;
27999;SDS011;15328;50.860;10.562;2023-05-07T20:30:49;8.95;;;7.43;;
27999;SDS011;15328;50.860;10.562;2023-05-07T20:35:49;9.65;;;7.15;;
27999;SDS011;15328;50.860;10.562;2023-05-07T20:40:50;9.33;;;7.77;;
27999;SDS011;15328;50.860;10.562;2023-05-07T20:46:00;9.18;;;7.40;;
27999;SDS011;15328;50.860;10.562;2023-05-07T20:51:01;10.23;;;7.72;;
27999;SDS011;15328;50.860;10.562;2023-05-07T20:56:02;8.70;;;7.22;;
27999;SDS011;15328;50.860;10.562;2023-05-07T21:01:03;9.60;;;7.50;;
27999;SDS011;15328;50.860;10.562;2023-05-07T21:06:05;10.45;;;8.00;;
27999;SDS011;15328;50.860;10.562;2023-05-07T21:11:05;11.57;;;8.32;;
27999;SDS011;15328;50.860;10.562;2023-05-07T21:16:06;11.23;;;8.63;;
27999;SDS011;15328;50.860;10.562;2023-05-07T21:21:09;10.10;;;8.65;;
27999;SDS011;15328;50.860;10.562;2023-05-07T21:26:09;10.65;;;8.02;;
27999;SDS011;15328;50.860;10.562;2023-05-07T21:31:17;10.82;;;9.05;;
27999;SDS011;15328;50.860;10.562;2023-05-07T21:36:18;9.43;;;7.50;;
27999;SDS011;15328;50.860;10.562;2023-05-07T21:41:18;9.05;;;6.90;;
27999;SDS011;15328;50.860;10.562;2023-05-07T21:46:19;9.68;;;7.45;;
27999;SDS011;15328;50.860;10.562;2023-05-07T21:51:20;10.55;;;8.05;;
27999;SDS011;15328;50.860;10.562;2023-05-07T21:56:20;9.95;;;7.68;;
27999;SDS011;15328;50.860;10.562;2023-05-07T22:01:21;12.30;;;8.37;;
27999;SDS011;15328;50.860;10.562;2023-05-07T22:06:21;9.40;;;7.35;;
27999;SDS011;15328;50.860;10.562;2023-05-07T22:11:22;11.30;;;9.30;;
27999;SDS011;15328;50.860;10.562;2023-05-07T22:16:22;9.40;;;7.90;;
27999;SDS011;15328;50.860;10.562;2023-05-07T22:21:22;9.05;;;7.18;;
27999;SDS011;15328;50.860;10.562;2023-05-07T22:26:23;9.95;;;8.02;;
27999;SDS011;15328;50.860;10.562;2023-05-07T22:31:23;10.32;;;7.13;;
27999;SDS011;15328;50.860;10.562;2023-05-07T22:36:24;11.55;;;8.70;;
27999;SDS011;15328;50.860;10.562;2023-05-07T22:41:24;11.17;;;9.27;;
27999;SDS011;15328;50.860;10.562;2023-05-07T22:46:25;13.18;;;9.10;;
27999;SDS011;15328;50.860;10.562;2023-05-07T22:51:28;10.93;;;8.88;;
27999;SDS011;15328;50.860;10.562;2023-05-07T22:56:28;11.38;;;8.70;;
27999;SDS011;15328;50.860;10.562;2023-05-07T23:01:29;9.70;;;7.83;;
27999;SDS011;15328;50.860;10.562;2023-05-07T23:06:29;10.35;;;8.20;;
27999;SDS011;15328;50.860;10.562;2023-05-07T23:11:30;10.80;;;8.90;;
27999;SDS011;15328;50.860;10.562;2023-05-07T23:16:30;12.23;;;9.07;;
27999;SDS011;15328;50.860;10.562;2023-05-07T23:21:31;13.70;;;9.13;;
27999;SDS011;15328;50.860;10.562;2023-05-07T23:26:31;12.98;;;10.57;;
27999;SDS011;15328;50.860;10.562;2023-05-07T23:31:32;13.75;;;10.30;;
27999;SDS011;15328;50.860;10.562;2023-05-07T23:36:32;12.20;;;9.82;;
27999;SDS011;15328;50.860;10.562;2023-05-07T23:41:32;12.63;;;10.03;;
27999;SDS011;15328;50.860;10.562;2023-05-07T23:46:33;14.93;;;11.30;;
27999;SDS011;15328;50.860;10.562;2023-05-07T23:51:33;12.83;;;10.13;;
27999;SDS011;15328;50.860;10.562;2023-05-07T23:56:34;14.02;;;11.10;;
